Time;durP1;ratioP1;P1;durP2;ratioP2;P2;SDS_P1;SDS_P2;PMS_P1;PMS_P2;Temp;Humidity;BMP_temperature;BMP_pressure;BME280_temperature;BME280_humidity;BME280_pressure;Samples;Min_cycle;Max_cycle;Signal;HPM_P1;HPM_P2
2022/10/22 00:01:15;;;;;;;;;1.00;1.00;;;;;;;;5021206;28;45546;-83
2022/10/22 00:03:41;;;;;;;;;4.75;1.25;;;;;;;;5020009;28;46484;-80
2022/10/22 00:06:06;;;;;;;;;1.50;1.50;;;;;;;;5020654;28;45199;-81
2022/10/22 00:08:31;;;;;;;;;4.25;3.00;;;;;;;;5020129;28;45508;-83
2022/10/22 00:10:57;;;;;;;;;2.75;1.00;;;;;;;;5020448;28;45467;-77
2022/10/22 00:13:22;;;;;;;;;1.50;1.25;;;;;;;;5020016;28;46518;-75
2022/10/22 00:15:47;;;;;;;;;3.75;3.50;;;;;;;;5020111;28;45369;-77
2022/10/22 00:18:12;;;;;;;;;2.75;2.75;;;;;;;;5020219;28;45377;-77
2022/10/22 00:20:38;;;;;;;;;2.25;2.00;;;;;;;;5020225;28;45320;-76
2022/10/22 00:23:03;;;;;;;;;2.50;1.75;;;;;;;;5019770;28;46584;-77
2022/10/22 00:25:28;;;;;;;;;4.25;1.00;;;;;;;;5019602;28;45361;-75
2022/10/22 00:27:53;;;;;;;;;4.50;2.00;;;;;;;;5018616;28;45462;-75
2022/10/22 00:30:19;;;;;;;;;1.00;1.00;;;;;;;;5020219;28;45365;-75
2022/10/22 00:32:44;;;;;;;;;4.25;1.75;;;;;;;;5019492;28;45698;-77
2022/10/22 00:35:09;;;;;;;;;1.75;1.75;;;;;;;;5019906;28;45339;-80
2022/10/22 00:37:34;;;;;;;;;4.25;2.00;;;;;;;;5019949;28;45472;-81
2022/10/22 00:40:00;;;;;;;;;2.25;1.25;;;;;;;;5019817;28;45401;-82
2022/10/22 00:42:26;;;;;;;;;3.00;1.50;;;;;;;;5018770;28;47330;-82
2022/10/22 00:45:06;;;;;;;;;3.00;2.50;;;;;;;;5019745;28;45372;-82
2022/10/22 00:47:50;;;;;;;;;1.75;1.75;;;;;;;;5019719;28;45316;-77
2022/10/22 00:50:22;;;;;;;;;3.00;3.00;;;;;;;;5019959;28;45309;-77
2022/10/22 00:52:48;;;;;;;;;2.00;2.00;;;;;;;;5019418;28;45715;-77
2022/10/22 00:55:13;;;;;;;;;4.25;2.00;;;;;;;;5019051;28;45421;-77
2022/10/22 00:57:39;;;;;;;;;7.00;2.00;;;;;;;;5019243;28;45447;-77
2022/10/22 01:00:04;;;;;;;;;2.75;1.50;;;;;;;;5019548;28;45428;-77
2022/10/22 01:02:30;;;;;;;;;2.75;1.50;;;;;;;;5018892;28;46562;-77
2022/10/22 01:04:55;;;;;;;;;2.50;2.50;;;;;;;;5019288;28;45301;-77
2022/10/22 01:07:22;;;;;;;;;4.50;2.00;;;;;;;;5019329;28;45159;-76
2022/10/22 01:09:50;;;;;;;;;1.75;0.75;;;;;;;;5019196;28;45354;-76
2022/10/22 01:12:30;;;;;;;;;2.00;1.50;;;;;;;;5018787;28;46372;-76
2022/10/22 01:15:11;;;;;;;;;2.50;1.00;;;;;;;;5019089;28;45281;-75
2022/10/22 01:17:39;;;;;;;;;2.50;2.50;;;;;;;;5018932;28;45389;-75
2022/10/22 01:20:07;;;;;;;;;3.25;2.50;;;;;;;;5019393;28;45231;-76
2022/10/22 01:22:35;;;;;;;;;0.75;0.75;;;;;;;;5018768;28;45725;-76
2022/10/22 01:25:18;;;;;;;;;1.25;1.25;;;;;;;;5017936;28;45431;-77
2022/10/22 01:27:59;;;;;;;;;1.50;1.50;;;;;;;;5018862;28;45577;-76
2022/10/22 01:30:25;;;;;;;;;5.25;1.75;;;;;;;;5019070;28;45320;-76
2022/10/22 01:32:53;;;;;;;;;9.50;2.00;;;;;;;;5018393;28;45560;-76
2022/10/22 01:35:22;;;;;;;;;4.00;2.75;;;;;;;;5018690;28;45440;-75
2022/10/22 01:37:49;;;;;;;;;2.00;2.00;;;;;;;;5018886;28;45224;-74
2022/10/22 01:40:16;;;;;;;;;1.25;1.00;;;;;;;;5018680;28;45511;-73
2022/10/22 01:42:41;;;;;;;;;3.50;2.00;;;;;;;;5018190;28;46335;-75
2022/10/22 01:45:11;;;;;;;;;2.25;1.75;;;;;;;;5018690;28;45245;-75
2022/10/22 01:47:39;;;;;;;;;4.00;1.50;;;;;;;;5018589;28;46024;-77
2022/10/22 01:50:07;;;;;;;;;1.25;1.00;;;;;;;;5018711;28;45179;-83
2022/10/22 01:52:50;;;;;;;;;3.50;1.75;;;;;;;;5017487;28;45591;-75
2022/10/22 01:55:16;;;;;;;;;3.50;1.75;;;;;;;;5018117;28;45322;-78
2022/10/22 01:57:45;;;;;;;;;3.75;1.00;;;;;;;;5013515;28;45471;-83
2022/10/22 02:00:12;;;;;;;;;3.75;3.75;;;;;;;;5018858;28;45408;-83
2022/10/22 02:02:42;;;;;;;;;0.75;0.75;;;;;;;;5018340;28;45331;-81
2022/10/22 02:05:20;;;;;;;;;1.75;1.75;;;;;;;;5010314;28;45439;-72
2022/10/22 02:08:06;;;;;;;;;1.50;1.50;;;;;;;;5009457;28;45471;-75
2022/10/22 02:10:31;;;;;;;;;1.75;0.00;;;;;;;;5006493;28;45588;-79
2022/10/22 02:12:58;;;;;;;;;6.00;0.75;;;;;;;;5004880;28;46192;-74
2022/10/22 02:15:35;;;;;;;;;0.75;0.75;;;;;;;;5109465;27;45486;-79
2022/10/22 02:18:02;;;;;;;;;3.00;1.00;;;;;;;;5093708;27;45584;-76
2022/10/22 02:20:28;;;;;;;;;2.75;1.00;;;;;;;;5091961;27;45350;-74
2022/10/22 02:22:54;;;;;;;;;3.50;2.75;;;;;;;;5106113;27;45447;-72
2022/10/22 02:25:20;;;;;;;;;1.50;1.50;;;;;;;;5091423;27;46551;-71
2022/10/22 02:27:48;;;;;;;;;0.75;0.75;;;;;;;;5095989;27;45315;-64
2022/10/22 02:30:15;;;;;;;;;3.00;1.00;;;;;;;;5094918;27;45392;-71
2022/10/22 02:32:47;;;;;;;;;5.75;2.25;;;;;;;;5094767;27;45503;-75
2022/10/22 02:35:13;;;;;;;;;2.00;1.50;;;;;;;;5094338;27;46339;-72
2022/10/22 02:37:39;;;;;;;;;2.00;1.25;;;;;;;;5093882;27;45685;-71
2022/10/22 02:40:04;;;;;;;;;1.75;1.75;;;;;;;;5094427;27;45591;-71
2022/10/22 02:42:30;;;;;;;;;2.75;0.75;;;;;;;;5094630;27;45574;-71
2022/10/22 02:44:55;;;;;;;;;4.00;2.00;;;;;;;;5094132;27;46580;-72
2022/10/22 02:47:21;;;;;;;;;1.25;1.25;;;;;;;;5108511;27;45385;-73
2022/10/22 02:49:46;;;;;;;;;1.00;1.00;;;;;;;;5108953;27;45451;-74
2022/10/22 02:52:11;;;;;;;;;2.00;1.75;;;;;;;;5077109;27;45341;-74
2022/10/22 02:54:36;;;;;;;;;2.25;1.25;;;;;;;;5083602;27;45509;-73
2022/10/22 02:57:01;;;;;;;;;1.75;1.75;;;;;;;;5094327;27;45490;-75
2022/10/22 02:59:27;;;;;;;;;3.25;1.75;;;;;;;;5094323;27;45647;-74
2022/10/22 03:01:52;;;;;;;;;3.25;1.25;;;;;;;;5105382;27;45480;-74
2022/10/22 03:04:17;;;;;;;;;2.00;0.75;;;;;;;;5094251;27;46406;-72
2022/10/22 03:06:43;;;;;;;;;1.75;1.75;;;;;;;;5091987;27;45385;-72
2022/10/22 03:09:08;;;;;;;;;0.75;0.75;;;;;;;;5094392;27;45478;-71
2022/10/22 03:11:34;;;;;;;;;1.00;1.00;;;;;;;;5081150;27;45316;-69
2022/10/22 03:13:59;;;;;;;;;3.00;1.50;;;;;;;;5101563;27;46676;-69
2022/10/22 03:16:24;;;;;;;;;1.00;0.75;;;;;;;;5100941;27;45345;-69
2022/10/22 03:18:49;;;;;;;;;4.00;2.25;;;;;;;;5083126;27;45391;-69
2022/10/22 03:21:14;;;;;;;;;4.00;1.00;;;;;;;;5102240;27;45315;-78
2022/10/22 03:23:41;;;;;;;;;0.75;0.75;;;;;;;;5075256;27;46188;-77
2022/10/22 03:26:07;;;;;;;;;3.50;1.75;;;;;;;;5073150;27;45510;-73
2022/10/22 03:28:34;;;;;;;;;2.00;1.50;;;;;;;;5079099;28;45665;-75
2022/10/22 03:30:59;;;;;;;;;1.25;1.25;;;;;;;;5079418;28;45542;-74
2022/10/22 03:33:24;;;;;;;;;1.50;0.75;;;;;;;;5086064;27;46459;-74
2022/10/22 03:35:49;;;;;;;;;4.00;2.00;;;;;;;;5078422;27;45201;-74
2022/10/22 03:38:15;;;;;;;;;2.75;2.25;;;;;;;;5060046;28;45231;-73
2022/10/22 03:40:41;;;;;;;;;4.50;3.00;;;;;;;;5065201;28;45202;-74
2022/10/22 03:43:07;;;;;;;;;3.50;1.75;;;;;;;;5078631;28;46674;-73
2022/10/22 03:45:32;;;;;;;;;4.75;2.00;;;;;;;;5078848;28;45194;-76
2022/10/22 03:47:57;;;;;;;;;2.75;2.75;;;;;;;;5079850;28;45497;-76
2022/10/22 03:50:22;;;;;;;;;4.25;1.75;;;;;;;;5083253;27;45542;-77
2022/10/22 03:52:48;;;;;;;;;3.00;2.00;;;;;;;;5082513;27;45564;-82
2022/10/22 03:55:13;;;;;;;;;6.00;3.00;;;;;;;;5094817;27;45471;-74
2022/10/22 03:57:38;;;;;;;;;2.75;1.75;;;;;;;;5064451;28;45381;-74
2022/10/22 04:00:05;;;;;;;;;1.25;0.75;;;;;;;;5060167;28;45201;-72
2022/10/22 04:02:30;;;;;;;;;4.50;2.00;;;;;;;;5075500;28;47930;-74
2022/10/22 04:04:55;;;;;;;;;1.75;0.75;;;;;;;;5079362;28;45348;-75
2022/10/22 04:07:20;;;;;;;;;2.50;0.75;;;;;;;;5079707;28;45458;-74
2022/10/22 04:09:46;;;;;;;;;4.00;1.25;;;;;;;;5083453;27;45232;-78
2022/10/22 04:12:11;;;;;;;;;1.75;1.00;;;;;;;;5079244;27;46455;-77
2022/10/22 04:14:36;;;;;;;;;1.75;0.00;;;;;;;;5085935;27;45727;-75
2022/10/22 04:17:01;;;;;;;;;2.00;0.25;;;;;;;;5100084;27;45400;-81
2022/10/22 04:19:26;;;;;;;;;2.00;1.00;;;;;;;;5090280;27;45220;-78
2022/10/22 04:21:51;;;;;;;;;0.00;0.00;;;;;;;;5068820;28;45670;-77
2022/10/22 04:24:17;;;;;;;;;4.00;0.75;;;;;;;;5076064;28;45356;-79
2022/10/22 04:26:42;;;;;;;;;3.25;1.50;;;;;;;;5078575;28;45366;-76
2022/10/22 04:29:08;;;;;;;;;0.75;0.75;;;;;;;;5079635;27;45454;-76
2022/10/22 04:31:33;;;;;;;;;1.75;0.75;;;;;;;;5079033;27;46570;-73
2022/10/22 04:33:59;;;;;;;;;4.00;1.50;;;;;;;;5064803;27;45438;-78
2022/10/22 04:36:25;;;;;;;;;2.75;0.75;;;;;;;;5073498;28;45240;-81
2022/10/22 04:38:52;;;;;;;;;0.00;0.00;;;;;;;;5069846;27;45388;-80
2022/10/22 04:41:19;;;;;;;;;5.00;1.75;;;;;;;;5070871;28;45280;-78
2022/10/22 04:43:44;;;;;;;;;6.75;1.50;;;;;;;;5078779;28;45478;-81
2022/10/22 04:46:10;;;;;;;;;3.50;1.00;;;;;;;;5077055;28;45462;-81
2022/10/22 04:48:36;;;;;;;;;3.00;0.75;;;;;;;;5079025;28;45423;-81
2022/10/22 04:51:01;;;;;;;;;1.50;1.50;;;;;;;;5076591;28;46500;-83
2022/10/22 04:53:27;;;;;;;;;1.00;0.50;;;;;;;;5084803;27;45525;-81
2022/10/22 04:55:52;;;;;;;;;2.75;1.50;;;;;;;;5068147;27;45394;-81
2022/10/22 04:58:18;;;;;;;;;1.50;1.50;;;;;;;;5068633;28;45294;-83
2022/10/22 05:00:43;;;;;;;;;1.75;1.75;;;;;;;;5076739;27;45640;-83
2022/10/22 05:03:08;;;;;;;;;3.25;1.25;;;;;;;;5077389;28;45391;-81
2022/10/22 05:05:33;;;;;;;;;0.50;0.50;;;;;;;;5080965;27;45268;-79
2022/10/22 05:07:58;;;;;;;;;3.50;2.25;;;;;;;;5078335;28;45356;-81
2022/10/22 05:10:24;;;;;;;;;0.50;0.25;;;;;;;;5077576;28;46450;-84
2022/10/22 05:12:49;;;;;;;;;2.25;1.00;;;;;;;;5079130;27;45517;-78
2022/10/22 05:15:15;;;;;;;;;2.00;1.25;;;;;;;;5077102;27;45447;-82
2022/10/22 05:17:40;;;;;;;;;1.75;0.75;;;;;;;;5058148;28;45408;-76
2022/10/22 05:20:06;;;;;;;;;1.25;1.25;;;;;;;;5072803;28;46437;-80
2022/10/22 05:22:32;;;;;;;;;1.00;1.00;;;;;;;;5050666;28;45379;-78
2022/10/22 05:24:57;;;;;;;;;2.50;1.75;;;;;;;;5077449;28;45245;-78
2022/10/22 05:27:22;;;;;;;;;2.00;1.00;;;;;;;;5074947;27;45341;-79
2022/10/22 05:29:47;;;;;;;;;2.00;1.50;;;;;;;;5057448;28;47414;-79
2022/10/22 05:32:13;;;;;;;;;0.75;0.75;;;;;;;;5074819;28;45180;-78
2022/10/22 05:34:38;;;;;;;;;3.00;2.00;;;;;;;;5077210;27;45225;-81
2022/10/22 05:37:03;;;;;;;;;2.50;1.75;;;;;;;;5066774;27;45431;-77
2022/10/22 05:39:28;;;;;;;;;2.50;1.00;;;;;;;;5066339;28;47056;-74
2022/10/22 05:41:53;;;;;;;;;3.50;1.75;;;;;;;;5077127;28;45428;-76
2022/10/22 05:44:19;;;;;;;;;3.25;1.50;;;;;;;;5086321;27;45359;-76
2022/10/22 05:46:44;;;;;;;;;1.00;1.00;;;;;;;;5076445;27;45281;-75
2022/10/22 05:49:10;;;;;;;;;0.75;0.75;;;;;;;;5062016;28;45776;-76
2022/10/22 05:51:36;;;;;;;;;2.00;1.50;;;;;;;;5077793;28;45371;-79
2022/10/22 05:54:02;;;;;;;;;2.50;2.00;;;;;;;;5076032;27;45281;-80
2022/10/22 05:56:28;;;;;;;;;1.25;0.75;;;;;;;;5072120;28;45488;-78
2022/10/22 05:58:55;;;;;;;;;3.25;1.50;;;;;;;;5072705;27;47262;-81
2022/10/22 06:01:21;;;;;;;;;3.00;0.50;;;;;;;;5082257;27;45504;-79
2022/10/22 06:03:47;;;;;;;;;1.25;1.25;;;;;;;;5073602;28;45294;-82
2022/10/22 06:06:15;;;;;;;;;2.75;1.00;;;;;;;;5077294;27;45407;-83
2022/10/22 06:08:41;;;;;;;;;1.75;0.75;;;;;;;;5074713;28;45511;-81
2022/10/22 06:11:06;;;;;;;;;3.25;1.50;;;;;;;;5063846;27;45485;-75
2022/10/22 06:13:31;;;;;;;;;2.25;0.75;;;;;;;;5083033;27;45345;-78
2022/10/22 06:15:57;;;;;;;;;1.25;0.50;;;;;;;;5073985;27;45382;-79
2022/10/22 06:18:22;;;;;;;;;0.50;0.50;;;;;;;;5081878;27;45674;-79
2022/10/22 06:20:47;;;;;;;;;1.00;1.00;;;;;;;;5077094;28;45934;-78
2022/10/22 06:23:13;;;;;;;;;2.25;2.25;;;;;;;;5074822;28;45339;-78
2022/10/22 06:25:38;;;;;;;;;5.00;2.25;;;;;;;;5073590;27;45467;-80
2022/10/22 06:28:04;;;;;;;;;2.50;0.50;;;;;;;;5076438;28;45368;-77
2022/10/22 06:30:29;;;;;;;;;7.00;3.25;;;;;;;;5077352;27;45368;-76
2022/10/22 06:32:55;;;;;;;;;2.25;1.75;;;;;;;;5071842;28;45337;-80
2022/10/22 06:35:20;;;;;;;;;3.50;1.50;;;;;;;;5080952;27;45285;-81
2022/10/22 06:37:46;;;;;;;;;1.50;0.50;;;;;;;;5066740;27;45446;-75
2022/10/22 06:40:11;;;;;;;;;1.00;1.00;;;;;;;;5072685;28;45233;-86
2022/10/22 06:42:37;;;;;;;;;3.00;2.00;;;;;;;;5069925;28;45443;-75
2022/10/22 06:45:02;;;;;;;;;5.75;1.50;;;;;;;;5057416;28;45404;-75
2022/10/22 06:47:30;;;;;;;;;2.50;2.50;;;;;;;;5076771;28;47576;-72
2022/10/22 06:49:55;;;;;;;;;4.25;2.00;;;;;;;;5080602;27;45555;-79
2022/10/22 06:52:20;;;;;;;;;5.25;1.50;;;;;;;;5077230;27;45407;-79
2022/10/22 06:54:46;;;;;;;;;3.50;1.25;;;;;;;;5080966;27;45415;-82
2022/10/22 06:57:11;;;;;;;;;4.50;2.50;;;;;;;;5075693;28;45763;-74
2022/10/22 06:59:36;;;;;;;;;3.75;1.50;;;;;;;;5079343;27;45463;-70
2022/10/22 07:02:01;;;;;;;;;3.00;1.00;;;;;;;;5079041;27;45472;-74
2022/10/22 07:04:26;;;;;;;;;1.00;0.50;;;;;;;;5078508;27;45478;-77
2022/10/22 07:06:53;;;;;;;;;3.00;3.00;;;;;;;;5079464;27;45618;-79
2022/10/22 07:09:18;;;;;;;;;3.50;2.00;;;;;;;;5086233;27;45445;-74
2022/10/22 07:11:44;;;;;;;;;1.50;1.50;;;;;;;;5080642;27;45426;-83
2022/10/22 07:14:10;;;;;;;;;4.75;3.00;;;;;;;;5081321;27;45442;-73
2022/10/22 07:16:36;;;;;;;;;3.50;3.25;;;;;;;;5066498;28;46344;-73
2022/10/22 07:19:02;;;;;;;;;2.25;1.50;;;;;;;;5083938;27;45581;-81
2022/10/22 07:21:28;;;;;;;;;4.25;4.25;;;;;;;;5070703;27;45397;-74
2022/10/22 07:23:53;;;;;;;;;15.33;12.67;;;;;;;;5075999;27;46267;-79
2022/10/22 07:26:24;;;;;;;;;5.00;3.75;;;;;;;;5078924;28;45519;-72
2022/10/22 07:28:49;;;;;;;;;4.50;3.00;;;;;;;;5078716;27;45332;-79
2022/10/22 07:31:15;;;;;;;;;2.25;2.25;;;;;;;;5063154;28;45484;-70
2022/10/22 07:33:40;;;;;;;;;13.00;10.00;;;;;;;;5055392;27;45203;-76
2022/10/22 07:36:06;;;;;;;;;3.00;1.50;;;;;;;;5092490;27;47263;-70
2022/10/22 07:38:32;;;;;;;;;7.50;2.50;;;;;;;;5084285;27;45429;-76
2022/10/22 07:40:58;;;;;;;;;4.50;2.50;;;;;;;;5072338;27;45438;-77
2022/10/22 07:43:23;;;;;;;;;3.00;2.00;;;;;;;;5079080;28;45276;-75
2022/10/22 07:45:49;;;;;;;;;2.00;1.50;;;;;;;;5077963;27;46258;-75
2022/10/22 07:48:14;;;;;;;;;5.25;3.25;;;;;;;;5079228;28;45238;-71
2022/10/22 07:50:39;;;;;;;;;5.75;3.75;;;;;;;;5078432;28;45372;-77
2022/10/22 07:53:04;;;;;;;;;2.75;1.50;;;;;;;;5077913;27;45467;-76
2022/10/22 07:55:30;;;;;;;;;2.25;1.50;;;;;;;;5078367;27;45694;-75
2022/10/22 07:57:55;;;;;;;;;2.50;2.00;;;;;;;;5084273;27;46484;-70
2022/10/22 08:00:20;;;;;;;;;2.75;1.00;;;;;;;;5079284;27;45527;-66
2022/10/22 08:02:46;;;;;;;;;0.75;0.75;;;;;;;;5078205;28;45956;-70
2022/10/22 08:05:12;;;;;;;;;1.75;1.75;;;;;;;;5078013;27;47085;-70
2022/10/22 08:07:37;;;;;;;;;4.25;1.75;;;;;;;;5076272;28;45451;-68
2022/10/22 08:10:02;;;;;;;;;2.50;0.75;;;;;;;;5077035;28;45759;-70
2022/10/22 08:12:28;;;;;;;;;4.50;1.50;;;;;;;;5078332;28;45356;-71
2022/10/22 08:14:53;;;;;;;;;6.75;2.50;;;;;;;;5077440;28;45652;-68
2022/10/22 08:17:18;;;;;;;;;3.00;3.00;;;;;;;;5078074;28;45285;-70
2022/10/22 08:19:44;;;;;;;;;3.00;3.00;;;;;;;;5077551;28;45524;-69
2022/10/22 08:22:09;;;;;;;;;5.75;1.00;;;;;;;;5074897;28;45518;-71
2022/10/22 08:24:34;;;;;;;;;5.00;1.75;;;;;;;;5077472;28;46649;-70
2022/10/22 08:26:59;;;;;;;;;1.50;1.50;;;;;;;;5076721;27;45459;-69
2022/10/22 08:29:25;;;;;;;;;2.25;2.00;;;;;;;;5060657;28;45451;-67
2022/10/22 08:31:51;;;;;;;;;2.00;1.00;;;;;;;;5068769;28;46292;-67
2022/10/22 08:34:16;;;;;;;;;1.00;1.00;;;;;;;;5069881;28;45531;-72
2022/10/22 08:36:42;;;;;;;;;4.50;1.00;;;;;;;;5077005;28;45427;-69
2022/10/22 08:39:07;;;;;;;;;3.75;1.50;;;;;;;;5062269;28;45285;-69
2022/10/22 08:41:35;;;;;;;;;3.00;0.00;;;;;;;;5077942;27;45357;-70
2022/10/22 08:44:07;;;;;;;;;3.25;0.50;;;;;;;;5057771;28;47341;-70
2022/10/22 08:46:51;;;;;;;;;3.00;1.00;;;;;;;;5074759;28;45410;-70
2022/10/22 08:49:21;;;;;;;;;2.00;2.00;;;;;;;;5074188;28;45300;-73
2022/10/22 08:51:47;;;;;;;;;3.50;0.25;;;;;;;;5076262;27;45531;-77
2022/10/22 08:54:12;;;;;;;;;2.75;1.00;;;;;;;;5076536;27;45367;-79
2022/10/22 08:56:41;;;;;;;;;2.00;0.50;;;;;;;;5075529;28;45414;-77
2022/10/22 08:59:19;;;;;;;;;3.00;2.00;;;;;;;;5077383;28;45216;-79
2022/10/22 09:01:48;;;;;;;;;5.50;3.25;;;;;;;;5078392;28;45384;-77
2022/10/22 09:04:13;;;;;;;;;1.00;1.00;;;;;;;;5058496;28;48537;-73
2022/10/22 09:06:40;;;;;;;;;3.00;1.50;;;;;;;;5077370;28;45546;-78
2022/10/22 09:09:15;;;;;;;;;3.00;1.00;;;;;;;;5076306;27;45439;-80
2022/10/22 09:11:42;;;;;;;;;3.75;1.50;;;;;;;;5076051;28;45455;-81
2022/10/22 09:14:11;;;;;;;;;3.00;1.00;;;;;;;;5089816;27;46162;-75
2022/10/22 09:16:36;;;;;;;;;2.50;1.00;;;;;;;;5078364;28;45324;-77
2022/10/22 09:19:01;;;;;;;;;0.50;0.00;;;;;;;;5089101;27;45442;-76
2022/10/22 09:21:27;;;;;;;;;64.67;49.67;;;;;;;;5098914;27;45498;-74
2022/10/22 09:24:00;;;;;;;;;2.25;2.25;;;;;;;;5097800;27;46318;-74
2022/10/22 09:26:26;;;;;;;;;1.00;1.00;;;;;;;;5083105;27;45411;-76
2022/10/22 09:28:51;;;;;;;;;4.00;0.25;;;;;;;;5078261;28;45516;-81
2022/10/22 09:31:17;;;;;;;;;3.00;2.00;;;;;;;;5078488;28;45486;-78
2022/10/22 09:33:43;;;;;;;;;1.75;1.00;;;;;;;;5092865;27;45839;-77
2022/10/22 09:36:12;;;;;;;;;3.00;1.50;;;;;;;;5097995;27;45536;-74
2022/10/22 09:38:38;;;;;;;;;0.00;0.00;;;;;;;;5098641;27;45227;-73
2022/10/22 09:41:04;;;;;;;;;1.50;1.50;;;;;;;;5096469;27;45620;-70
2022/10/22 09:43:30;;;;;;;;;2.00;1.00;;;;;;;;5092240;27;46368;-73
2022/10/22 09:45:57;;;;;;;;;11.25;9.25;;;;;;;;5098206;27;45855;-73
2022/10/22 09:48:29;;;;;;;;;5.25;5.00;;;;;;;;5088565;27;45279;-73
2022/10/22 09:50:57;;;;;;;;;1.00;0.50;;;;;;;;5098714;27;45190;-77
2022/10/22 09:53:28;;;;;;;;;1.00;0.00;;;;;;;;5090413;27;46696;-73
2022/10/22 09:55:56;;;;;;;;;2.25;2.00;;;;;;;;5068694;27;45529;-70
2022/10/22 09:58:21;;;;;;;;;2.25;2.25;;;;;;;;5069283;27;45479;-77
2022/10/22 10:00:50;;;;;;;;;3.00;1.00;;;;;;;;5072534;28;45373;-72
2022/10/22 10:03:17;;;;;;;;;2.00;1.00;;;;;;;;5076101;28;45718;-75
2022/10/22 10:05:45;;;;;;;;;0.25;0.00;;;;;;;;5075839;28;45411;-76
2022/10/22 10:08:12;;;;;;;;;1.50;0.00;;;;;;;;5071569;28;45503;-73
2022/10/22 10:10:48;;;;;;;;;0.00;0.00;;;;;;;;5072717;28;45584;-76
2022/10/22 10:13:34;;;;;;;;;1.25;1.25;;;;;;;;5082775;27;45721;-75
2022/10/22 10:16:12;;;;;;;;;5.00;1.00;;;;;;;;5077856;27;45447;-75
2022/10/22 10:18:49;;;;;;;;;1.25;1.00;;;;;;;;5081081;27;45439;-78
2022/10/22 10:21:14;;;;;;;;;1.00;0.00;;;;;;;;5077918;28;45438;-77
2022/10/22 10:23:59;;;;;;;;;1.00;1.00;;;;;;;;5096196;27;45602;-78
2022/10/22 10:26:36;;;;;;;;;0.50;0.00;;;;;;;;5033257;28;45595;-76
2022/10/22 10:29:04;;;;;;;;;0.75;0.75;;;;;;;;5029666;28;45337;-75
2022/10/22 10:31:49;;;;;;;;;2.00;0.00;;;;;;;;5029049;28;45578;-78
2022/10/22 10:34:28;;;;;;;;;2.50;1.00;;;;;;;;4992781;28;46320;-79
2022/10/22 10:37:12;;;;;;;;;4.00;1.00;;;;;;;;4967163;28;45753;-81
2022/10/22 10:39:37;;;;;;;;;2.00;0.00;;;;;;;;4978490;28;45360;-78
2022/10/22 10:42:09;;;;;;;;;1.25;1.25;;;;;;;;4978821;28;45442;-79
2022/10/22 10:44:47;;;;;;;;;0.00;0.00;;;;;;;;4978256;28;45385;-78
2022/10/22 10:47:14;;;;;;;;;3.50;0.00;;;;;;;;4978921;28;45329;-76
2022/10/22 10:49:42;;;;;;;;;0.25;0.25;;;;;;;;4978721;28;45547;-78
2022/10/22 10:52:07;;;;;;;;;2.50;1.00;;;;;;;;4978866;28;45926;-76
2022/10/22 10:54:32;;;;;;;;;2.50;1.25;;;;;;;;4978610;28;45710;-78
2022/10/22 10:57:01;;;;;;;;;1.00;1.00;;;;;;;;4978296;28;45579;-79
2022/10/22 10:59:29;;;;;;;;;2.50;0.00;;;;;;;;4979071;28;45485;-78
2022/10/22 11:02:13;;;;;;;;;1.50;0.00;;;;;;;;4991216;28;45382;-78
2022/10/22 11:04:38;;;;;;;;;0.25;0.25;;;;;;;;5055569;28;46488;-78
2022/10/22 11:07:08;;;;;;;;;2.00;0.00;;;;;;;;5058292;28;45262;-76
2022/10/22 11:09:36;;;;;;;;;1.50;1.25;;;;;;;;5058151;28;45520;-78
2022/10/22 11:12:04;;;;;;;;;6.50;0.00;;;;;;;;5081362;27;45414;-78
2022/10/22 11:14:34;;;;;;;;;1.00;0.00;;;;;;;;5085961;27;45275;-76
2022/10/22 11:17:07;;;;;;;;;3.25;1.00;;;;;;;;5099120;27;45307;-79
2022/10/22 11:19:39;;;;;;;;;4.75;0.00;;;;;;;;5088259;27;45386;-77
2022/10/22 11:22:10;;;;;;;;;0.25;0.25;;;;;;;;5080815;27;45254;-76
2022/10/22 11:24:53;;;;;;;;;1.50;0.75;;;;;;;;5079889;27;46553;-70
2022/10/22 11:27:30;;;;;;;;;1.00;1.00;;;;;;;;5083784;27;45502;-73
2022/10/22 11:30:12;;;;;;;;;1.75;0.00;;;;;;;;5097710;27;45293;-73
2022/10/22 11:32:38;;;;;;;;;0.00;0.00;;;;;;;;5067668;27;45322;-75
2022/10/22 11:35:05;;;;;;;;;0.00;0.00;;;;;;;;5079794;28;45684;-75
2022/10/22 11:37:34;;;;;;;;;2.00;0.25;;;;;;;;5080332;27;45435;-72
2022/10/22 11:40:04;;;;;;;;;0.00;0.00;;;;;;;;5082597;27;45500;-73
2022/10/22 11:42:34;;;;;;;;;2.00;0.50;;;;;;;;5094982;27;45447;-74
2022/10/22 11:45:20;;;;;;;;;1.00;1.00;;;;;;;;5079593;28;45508;-73
2022/10/22 11:47:55;;;;;;;;;0.25;0.25;;;;;;;;5016872;28;45408;-73
2022/10/22 11:50:24;;;;;;;;;3.00;0.00;;;;;;;;4998003;28;45446;-75
2022/10/22 11:52:52;;;;;;;;;1.00;0.00;;;;;;;;4997355;28;45359;-75
2022/10/22 11:55:36;;;;;;;;;0.00;0.00;;;;;;;;4980579;28;46330;-72
2022/10/22 11:58:21;;;;;;;;;0.75;0.00;;;;;;;;4997407;28;45391;-73
2022/10/22 12:00:47;;;;;;;;;1.00;1.00;;;;;;;;4996833;28;45330;-71
2022/10/22 12:03:23;;;;;;;;;0.50;0.50;;;;;;;;4997541;28;45447;-74
2022/10/22 12:06:03;;;;;;;;;1.00;1.00;;;;;;;;4997210;28;46329;-74
2022/10/22 12:08:29;;;;;;;;;14.33;11.33;;;;;;;;4997212;28;45334;-74
2022/10/22 12:10:57;;;;;;;;;1.25;1.25;;;;;;;;4997643;28;45569;-72
2022/10/22 12:13:24;;;;;;;;;2.50;1.50;;;;;;;;4997140;28;45490;-72
2022/10/22 12:15:52;;;;;;;;;2.50;0.00;;;;;;;;4996902;28;46612;-74
2022/10/22 12:18:17;;;;;;;;;1.00;1.00;;;;;;;;4997237;28;45433;-74
2022/10/22 12:20:42;;;;;;;;;1.00;0.25;;;;;;;;4997308;28;45465;-74
2022/10/22 12:23:10;;;;;;;;;3.75;3.00;;;;;;;;4997620;28;45497;-74
2022/10/22 12:25:35;;;;;;;;;4.00;2.00;;;;;;;;5069469;27;45529;-72
2022/10/22 12:28:00;;;;;;;;;0.50;0.50;;;;;;;;5083138;27;45473;-74
2022/10/22 12:30:28;;;;;;;;;1.00;0.00;;;;;;;;5100096;27;45350;-74
2022/10/22 12:32:55;;;;;;;;;4.50;0.00;;;;;;;;5099505;27;45169;-74
2022/10/22 12:35:26;;;;;;;;;0.00;0.00;;;;;;;;5076758;27;47326;-74
2022/10/22 12:37:53;;;;;;;;;0.75;0.00;;;;;;;;5079343;28;45194;-75
2022/10/22 12:40:18;;;;;;;;;3.25;1.00;;;;;;;;5079234;28;45287;-73
2022/10/22 12:42:52;;;;;;;;;1.75;1.00;;;;;;;;5083109;27;45323;-73
2022/10/22 12:45:17;;;;;;;;;3.00;0.00;;;;;;;;5095036;27;45451;-73
2022/10/22 12:47:50;;;;;;;;;0.25;0.00;;;;;;;;5080209;27;45229;-73
2022/10/22 12:50:20;;;;;;;;;0.00;0.00;;;;;;;;5086207;27;45507;-73
2022/10/22 12:52:46;;;;;;;;;1.00;1.00;;;;;;;;5099659;27;45238;-72
2022/10/22 12:55:18;;;;;;;;;2.00;1.00;;;;;;;;5098752;27;45529;-73
2022/10/22 12:57:45;;;;;;;;;2.00;2.00;;;;;;;;5096855;27;45458;-74
2022/10/22 13:00:21;;;;;;;;;1.25;0.00;;;;;;;;5097209;27;46369;-74
2022/10/22 13:02:46;;;;;;;;;1.00;1.00;;;;;;;;5099403;27;45412;-74
2022/10/22 13:05:15;;;;;;;;;3.25;1.00;;;;;;;;5099125;27;45317;-72
2022/10/22 13:07:41;;;;;;;;;1.75;0.75;;;;;;;;5097526;27;45531;-72
2022/10/22 13:10:14;;;;;;;;;0.00;0.00;;;;;;;;5098800;27;45612;-75
2022/10/22 13:12:43;;;;;;;;;1.00;0.00;;;;;;;;5099392;27;45376;-72
2022/10/22 13:15:18;;;;;;;;;1.50;1.00;;;;;;;;5098760;27;46870;-73
2022/10/22 13:17:43;;;;;;;;;1.00;0.00;;;;;;;;5097222;27;45212;-72
2022/10/22 13:20:15;;;;;;;;;1.25;1.00;;;;;;;;5098991;27;45367;-72
2022/10/22 13:22:51;;;;;;;;;1.50;1.50;;;;;;;;5093876;27;45434;-73
2022/10/22 13:25:18;;;;;;;;;1.75;1.75;;;;;;;;5098724;27;45271;-75
2022/10/22 13:27:44;;;;;;;;;2.00;1.00;;;;;;;;5098907;27;45281;-73
2022/10/22 13:30:21;;;;;;;;;2.00;2.00;;;;;;;;5099089;27;45394;-72
2022/10/22 13:32:50;;;;;;;;;2.25;0.75;;;;;;;;5096400;27;45366;-74
2022/10/22 13:35:17;;;;;;;;;3.00;1.00;;;;;;;;5084546;27;46342;-78
2022/10/22 13:37:42;;;;;;;;;3.75;2.50;;;;;;;;5098649;27;45354;-78
2022/10/22 13:40:11;;;;;;;;;3.75;3.75;;;;;;;;5096304;27;45570;-77
2022/10/22 13:42:38;;;;;;;;;2.00;2.00;;;;;;;;5078499;28;45431;-79
2022/10/22 13:45:03;;;;;;;;;4.00;1.75;;;;;;;;5077951;28;47373;-71
2022/10/22 13:47:28;;;;;;;;;1.25;1.00;;;;;;;;5072679;28;45487;-80
2022/10/22 13:49:55;;;;;;;;;5.50;2.75;;;;;;;;5095156;27;45346;-72
2022/10/22 13:52:28;;;;;;;;;3.00;1.00;;;;;;;;5089250;27;45467;-68
2022/10/22 13:54:53;;;;;;;;;1.25;1.25;;;;;;;;5077660;28;45525;-83
2022/10/22 13:57:18;;;;;;;;;1.00;1.00;;;;;;;;5079984;27;45526;-79
2022/10/22 13:59:43;;;;;;;;;0.75;0.75;;;;;;;;5098673;27;45356;-79
2022/10/22 14:02:10;;;;;;;;;1.50;0.00;;;;;;;;5093141;27;45477;-80
2022/10/22 14:04:37;;;;;;;;;6.67;5.00;;;;;;;;5077958;28;46386;-79
2022/10/22 14:07:02;;;;;;;;;3.75;3.00;;;;;;;;5077789;28;45544;-77
2022/10/22 14:09:27;;;;;;;;;3.00;1.00;;;;;;;;5077890;27;45150;-83
2022/10/22 14:11:52;;;;;;;;;2.00;1.00;;;;;;;;5085816;27;45441;-82
2022/10/22 14:14:18;;;;;;;;;0.75;0.75;;;;;;;;5075976;28;47272;-79
2022/10/22 14:16:43;;;;;;;;;2.50;2.00;;;;;;;;5076587;28;45335;-76
2022/10/22 14:19:14;;;;;;;;;2.00;0.25;;;;;;;;5078145;27;45262;-78
2022/10/22 14:21:39;;;;;;;;;3.00;1.00;;;;;;;;5077697;27;45253;-78
2022/10/22 14:24:05;;;;;;;;;1.50;1.00;;;;;;;;5074702;27;46514;-78
2022/10/22 14:26:32;;;;;;;;;1.00;1.00;;;;;;;;5057412;28;45320;-75
2022/10/22 14:28:57;;;;;;;;;0.75;0.75;;;;;;;;5057770;28;45250;-77
2022/10/22 14:31:23;;;;;;;;;3.00;1.00;;;;;;;;5057606;28;45350;-78
2022/10/22 14:33:49;;;;;;;;;1.50;1.00;;;;;;;;5056092;28;45438;-77
2022/10/22 14:36:15;;;;;;;;;4.50;1.50;;;;;;;;5057415;28;45356;-78
2022/10/22 14:38:41;;;;;;;;;2.00;2.00;;;;;;;;5057246;28;45289;-79
2022/10/22 14:41:27;;;;;;;;;1.25;1.25;;;;;;;;5057132;28;45598;-78
2022/10/22 14:43:54;;;;;;;;;1.00;1.00;;;;;;;;5037008;28;45574;-76
2022/10/22 14:46:19;;;;;;;;;3.00;2.75;;;;;;;;5055023;28;45544;-78